createdAt,value
2022-11-05T00:00:37.608Z,15.66
2022-11-05T00:03:23.946Z,15.63
2022-11-05T00:06:12.667Z,15.69
2022-11-05T00:08:59.748Z,15.74
2022-11-05T00:11:45.575Z,15.77
2022-11-05T00:14:31.603Z,15.75
2022-11-05T00:16:58.893Z,15.75
2022-11-05T00:19:25.911Z,15.75
2022-11-05T00:22:11.671Z,15.80
2022-11-05T00:24:57.375Z,15.83
2022-11-05T00:27:24.653Z,15.87
2022-11-05T00:29:52.225Z,15.86
2022-11-05T00:32:19.442Z,15.88
2022-11-05T00:34:46.476Z,15.89
2022-11-05T00:37:13.647Z,15.88
2022-11-05T00:39:43.959Z,15.89
2022-11-05T00:42:32.729Z,15.87
2022-11-05T00:45:02.630Z,15.81
2022-11-05T00:47:49.930Z,15.71
2022-11-05T00:50:17.615Z,15.74
2022-11-05T00:52:56.896Z,15.78
2022-11-05T00:55:29.669Z,15.80
2022-11-05T00:57:57.895Z,15.80
2022-11-05T01:00:27.093Z,15.77
2022-11-05T01:02:57.146Z,15.74
2022-11-05T01:05:24.467Z,15.75
2022-11-05T01:07:53.287Z,15.76
2022-11-05T01:10:21.454Z,15.84
2022-11-05T01:12:48.554Z,15.87
2022-11-05T01:15:16.248Z,15.93
2022-11-05T01:17:43.280Z,15.97
2022-11-05T01:20:11.279Z,16.03
2022-11-05T01:22:38.368Z,16.10
2022-11-05T01:25:07.736Z,16.17
2022-11-05T01:27:36.863Z,16.22
2022-11-05T01:30:06.223Z,16.30
2022-11-05T01:32:35.236Z,16.32
2022-11-05T01:35:03.836Z,16.39
2022-11-05T01:37:30.965Z,16.46
2022-11-05T01:39:58.504Z,16.46
2022-11-05T01:42:27.275Z,16.49
2022-11-05T01:45:02.712Z,16.48
2022-11-05T01:47:58.026Z,16.49
2022-11-05T01:50:51.679Z,16.47
2022-11-05T01:53:39.522Z,16.46
2022-11-05T01:56:11.815Z,16.46
2022-11-05T01:58:49.885Z,16.45
2022-11-05T02:01:18.310Z,16.37
2022-11-05T02:03:47.170Z,16.37
2022-11-05T02:06:16.854Z,16.37
2022-11-05T02:09:04.047Z,16.35
2022-11-05T02:11:31.382Z,16.36
2022-11-05T02:13:59.874Z,16.38
2022-11-05T02:16:46.837Z,16.40
2022-11-05T02:19:30.738Z,16.46
2022-11-05T02:22:12.969Z,16.50
2022-11-05T02:24:48.764Z,16.57
2022-11-05T02:27:54.104Z,16.64
2022-11-05T02:30:39.306Z,16.74
2022-11-05T02:33:25.053Z,16.84
2022-11-05T02:36:04.567Z,16.83
2022-11-05T02:38:36.520Z,16.82
2022-11-05T02:41:22.711Z,16.85
2022-11-05T02:44:17.768Z,16.78
2022-11-05T02:47:07.125Z,16.67
2022-11-05T02:50:03.402Z,16.49
2022-11-05T02:52:59.299Z,16.23
2022-11-05T02:55:36.479Z,16.09
2022-11-05T02:58:07.027Z,16.02
2022-11-05T03:00:58.076Z,15.98
2022-11-05T03:03:35.096Z,15.94
2022-11-05T03:06:07.971Z,15.93
2022-11-05T03:08:44.104Z,15.89
2022-11-05T03:11:20.272Z,15.86
2022-11-05T03:14:11.562Z,15.85
2022-11-05T03:16:38.704Z,15.82
2022-11-05T03:19:43.187Z,15.82
2022-11-05T03:22:29.309Z,15.84
2022-11-05T03:25:02.783Z,15.86
2022-11-05T03:27:34.773Z,15.89
2022-11-05T03:30:05.619Z,15.93
2022-11-05T03:32:36.624Z,15.94
2022-11-05T03:35:14.783Z,15.90
2022-11-05T03:37:45.056Z,15.81
2022-11-05T03:40:14.915Z,15.74
2022-11-05T03:42:47.038Z,15.67
2022-11-05T03:45:27.946Z,15.61
2022-11-05T03:47:59.095Z,15.55
2022-11-05T03:50:44.126Z,15.52
2022-11-05T03:53:18.963Z,15.52
2022-11-05T03:56:13.065Z,15.51
2022-11-05T03:58:47.952Z,15.49
2022-11-05T04:01:15.808Z,15.45
2022-11-05T04:03:42.884Z,15.46
2022-11-05T04:06:29.386Z,15.46
2022-11-05T04:09:14.899Z,15.45
2022-11-05T04:12:00.486Z,15.45
2022-11-05T04:14:27.633Z,15.43
2022-11-05T04:17:28.382Z,15.41
2022-11-05T04:20:14.976Z,15.43
2022-11-05T04:23:00.442Z,15.43
2022-11-05T04:25:27.603Z,15.44
2022-11-05T04:28:00.169Z,15.44
2022-11-05T04:30:27.342Z,15.44
2022-11-05T04:33:00.302Z,15.44
2022-11-05T04:35:29.992Z,15.45
2022-11-05T04:37:57.190Z,15.42
2022-11-05T04:40:25.026Z,15.42
2022-11-05T04:42:54.429Z,15.43
2022-11-05T04:45:23.488Z,15.46
2022-11-05T04:47:50.637Z,15.49
2022-11-05T04:50:18.066Z,15.51
2022-11-05T04:52:45.283Z,15.53
2022-11-05T04:55:12.488Z,15.51
2022-11-05T04:57:39.565Z,15.46
2022-11-05T05:00:08.716Z,15.40
2022-11-05T05:02:36.377Z,15.37
2022-11-05T05:05:04.814Z,15.38
2022-11-05T05:07:33.225Z,15.37
2022-11-05T05:10:01.625Z,15.40
2022-11-05T05:12:29.179Z,15.44
2022-11-05T05:14:56.237Z,15.43
2022-11-05T05:17:24.460Z,15.44
2022-11-05T05:20:10.347Z,15.44
2022-11-05T05:22:39.914Z,15.47
2022-11-05T05:25:07.542Z,15.50
2022-11-05T05:27:34.626Z,15.54
2022-11-05T05:30:03.715Z,15.57
2022-11-05T05:32:30.852Z,15.61
2022-11-05T05:35:00.135Z,15.62
2022-11-05T05:37:27.321Z,15.67
2022-11-05T05:39:54.477Z,15.68
2022-11-05T05:42:23.103Z,15.69
2022-11-05T05:44:50.178Z,15.71
2022-11-05T05:47:17.410Z,15.71
2022-11-05T05:49:44.481Z,15.71
2022-11-05T05:52:11.803Z,15.69
2022-11-05T05:54:42.652Z,15.70
2022-11-05T05:57:10.637Z,15.68
2022-11-05T05:59:37.724Z,15.65
2022-11-05T06:02:05.869Z,15.65
2022-11-05T06:04:33.046Z,15.62
2022-11-05T06:07:00.211Z,15.60
2022-11-05T06:09:27.284Z,15.61
2022-11-05T06:11:54.522Z,15.60
2022-11-05T06:14:21.717Z,15.61
2022-11-05T06:16:48.805Z,15.63
2022-11-05T06:19:16.078Z,15.67
2022-11-05T06:21:43.210Z,15.73
2022-11-05T06:24:10.569Z,15.77
2022-11-05T06:26:42.964Z,15.78
2022-11-05T06:29:10.827Z,15.82
2022-11-05T06:31:37.988Z,15.83
2022-11-05T06:34:05.122Z,15.83
2022-11-05T06:36:32.478Z,15.87
2022-11-05T06:38:59.759Z,15.90
2022-11-05T06:41:27.108Z,15.95
2022-11-05T06:43:54.238Z,16.00
2022-11-05T06:46:21.923Z,16.06
2022-11-05T06:48:48.973Z,16.15
2022-11-05T06:51:16.329Z,16.26
2022-11-05T06:53:43.383Z,16.34
2022-11-05T06:56:10.620Z,16.35
2022-11-05T06:58:37.810Z,16.33
2022-11-05T07:01:10.656Z,16.36
2022-11-05T07:03:39.980Z,16.36
2022-11-05T07:06:08.059Z,16.37
2022-11-05T07:08:37.199Z,16.41
2022-11-05T07:11:04.654Z,16.47
2022-11-05T07:13:32.047Z,16.57
2022-11-05T07:15:59.433Z,16.63
2022-11-05T07:18:28.950Z,16.74
2022-11-05T07:20:56.163Z,16.80
2022-11-05T07:23:23.257Z,16.78
2022-11-05T07:25:50.832Z,16.80
2022-11-05T07:28:18.375Z,16.83
2022-11-05T07:30:45.703Z,16.90
2022-11-05T07:33:13.403Z,16.91
2022-11-05T07:35:40.939Z,16.87
2022-11-05T07:38:08.994Z,16.91
2022-11-05T07:40:36.232Z,16.85
2022-11-05T07:43:04.077Z,16.87
2022-11-05T07:45:31.952Z,16.96
2022-11-05T07:48:04.097Z,16.98
2022-11-05T07:50:36.827Z,17.02
2022-11-05T07:53:06.888Z,17.24
2022-11-05T07:55:34.630Z,17.43
2022-11-05T07:58:02.133Z,17.64
2022-11-05T08:00:30.244Z,17.68
2022-11-05T08:03:09.268Z,17.69
2022-11-05T08:05:40.120Z,17.83
2022-11-05T08:08:09.404Z,17.83
2022-11-05T08:10:38.025Z,17.92
2022-11-05T08:13:06.638Z,18.10
2022-11-05T08:15:34.421Z,18.39
2022-11-05T08:18:07.165Z,18.49
2022-11-05T08:20:35.177Z,18.51
2022-11-05T08:23:02.385Z,18.81
2022-11-05T08:25:29.826Z,19.12
2022-11-05T08:28:08.987Z,19.20
2022-11-05T08:30:36.774Z,18.94
2022-11-05T08:33:10.076Z,19.00
2022-11-05T08:35:38.372Z,19.08
2022-11-05T08:38:07.958Z,18.95
2022-11-05T08:40:36.925Z,19.01
2022-11-05T08:43:07.122Z,18.79
2022-11-05T08:45:38.209Z,18.55
2022-11-05T08:48:17.251Z,18.54
2022-11-05T08:50:47.892Z,18.56
2022-11-05T08:53:16.149Z,18.46
2022-11-05T08:55:44.407Z,18.48
2022-11-05T08:58:15.541Z,18.41
2022-11-05T09:00:44.374Z,18.33
2022-11-05T09:03:12.768Z,18.30
2022-11-05T09:05:41.665Z,18.35
2022-11-05T09:08:12.115Z,18.42
2022-11-05T09:10:42.784Z,18.58
2022-11-05T09:13:17.893Z,18.60
2022-11-05T09:15:45.982Z,18.63
2022-11-05T09:18:14.253Z,18.58
2022-11-05T09:20:41.820Z,18.62
2022-11-05T09:23:11.464Z,18.59
2022-11-05T09:25:40.211Z,18.62
2022-11-05T09:28:11.377Z,18.71
2022-11-05T09:30:47.973Z,18.86
2022-11-05T09:33:15.820Z,18.88
2022-11-05T09:35:43.287Z,18.97
2022-11-05T09:38:10.461Z,18.90
2022-11-05T09:41:08.983Z,19.01
2022-11-05T09:43:58.238Z,18.88
2022-11-05T09:46:28.600Z,18.88
2022-11-05T09:49:05.372Z,18.87
2022-11-05T09:51:33.380Z,18.84
2022-11-05T09:54:03.072Z,19.18
2022-11-05T09:56:33.270Z,19.31
2022-11-05T09:59:18.663Z,19.27
2022-11-05T10:01:47.387Z,19.52
2022-11-05T10:04:28.147Z,19.78
2022-11-05T10:07:01.293Z,19.80
2022-11-05T10:09:31.580Z,19.67
2022-11-05T10:12:05.807Z,19.71
2022-11-05T10:14:39.372Z,19.59
2022-11-05T10:17:18.488Z,19.69
2022-11-05T10:19:51.250Z,20.03
2022-11-05T10:22:19.886Z,20.04
2022-11-05T10:24:51.237Z,20.25
2022-11-05T10:27:32.301Z,20.53
2022-11-05T10:30:00.439Z,20.46
2022-11-05T10:32:37.711Z,20.88
2022-11-05T10:35:07.227Z,20.74
2022-11-05T10:37:40.536Z,20.57
2022-11-05T10:40:39.995Z,20.75
2022-11-05T10:43:10.503Z,20.63
2022-11-05T10:45:40.937Z,20.48
2022-11-05T10:48:39.417Z,20.49
2022-11-05T10:51:11.072Z,20.32
2022-11-05T10:53:39.976Z,20.20
2022-11-05T10:56:37.834Z,20.43
2022-11-05T10:59:18.962Z,20.69
2022-11-05T11:01:46.924Z,20.61
2022-11-05T11:04:20.751Z,20.70
2022-11-05T11:06:52.793Z,20.52
2022-11-05T11:09:24.469Z,20.35
2022-11-05T11:11:59.757Z,20.55
2022-11-05T11:14:29.907Z,20.54
2022-11-05T11:17:18.201Z,20.49
2022-11-05T11:19:45.376Z,20.49
2022-11-05T11:22:16.996Z,20.48
2022-11-05T11:24:47.988Z,20.20
2022-11-05T11:27:20.458Z,20.09
2022-11-05T11:29:56.983Z,20.04
2022-11-05T11:32:28.787Z,19.92
2022-11-05T11:34:58.472Z,19.81
2022-11-05T11:37:29.996Z,19.76
2022-11-05T11:40:19.490Z,19.71
2022-11-05T11:42:51.042Z,19.48
2022-11-05T11:45:24.430Z,19.39
2022-11-05T11:47:51.886Z,19.30
2022-11-05T11:50:39.007Z,19.77
2022-11-05T11:53:21.150Z,20.44
2022-11-05T11:56:16.794Z,20.55
2022-11-05T11:58:43.931Z,20.35
2022-11-05T12:01:27.812Z,20.05
2022-11-05T12:04:00.320Z,19.02
2022-11-05T12:06:43.746Z,18.60
2022-11-05T12:09:25.840Z,18.66
2022-11-05T12:12:07.771Z,18.52
2022-11-05T12:14:55.043Z,18.45
2022-11-05T12:17:43.217Z,18.41
2022-11-05T12:20:16.144Z,18.45
2022-11-05T12:23:01.374Z,18.39
2022-11-05T12:25:28.606Z,18.32
2022-11-05T12:28:14.119Z,18.09
2022-11-05T12:30:53.363Z,18.11
2022-11-05T12:33:20.509Z,18.05
2022-11-05T12:35:58.325Z,18.45
2022-11-05T12:39:01.833Z,18.88
2022-11-05T12:41:43.907Z,19.33
2022-11-05T12:44:26.332Z,19.72
2022-11-05T12:47:29.713Z,19.86
2022-11-05T12:50:11.454Z,19.70
2022-11-05T12:52:50.745Z,19.43
2022-11-05T12:55:24.297Z,19.15
2022-11-05T12:57:59.243Z,18.93
2022-11-05T13:00:30.184Z,19.05
2022-11-05T13:03:23.265Z,19.17
2022-11-05T13:06:10.383Z,18.81
2022-11-05T13:08:45.125Z,18.88
2022-11-05T13:11:30.752Z,18.74
2022-11-05T13:14:38.994Z,18.63
2022-11-05T13:17:22.931Z,18.47
2022-11-05T13:20:17.390Z,18.34
2022-11-05T13:22:49.635Z,18.26
2022-11-05T13:25:22.366Z,18.17
2022-11-05T13:28:22.304Z,18.08
2022-11-05T13:30:55.224Z,18.11
2022-11-05T13:33:31.384Z,18.16
2022-11-05T13:36:28.158Z,18.21
2022-11-05T13:39:14.131Z,18.17
2022-11-05T13:41:55.087Z,18.18
2022-11-05T13:44:43.059Z,18.27
2022-11-05T13:47:16.900Z,18.40
2022-11-05T13:50:09.143Z,18.45
2022-11-05T13:53:01.168Z,18.33
2022-11-05T13:55:47.068Z,18.23
2022-11-05T13:58:14.217Z,18.13
2022-11-05T14:00:58.464Z,18.05
2022-11-05T14:03:28.325Z,17.99
2022-11-05T14:06:04.898Z,17.90
2022-11-05T14:08:45.242Z,17.81
2022-11-05T14:11:18.571Z,17.78
2022-11-05T14:13:47.204Z,17.73
2022-11-05T14:16:20.988Z,17.67
2022-11-05T14:19:15.093Z,17.84
2022-11-05T14:22:27.236Z,18.17
2022-11-05T14:24:54.341Z,18.44
2022-11-05T14:27:21.572Z,18.46
2022-11-05T14:29:50.221Z,18.38
2022-11-05T14:32:17.319Z,18.34
2022-11-05T14:34:50.002Z,18.26
2022-11-05T14:37:22.632Z,18.14
2022-11-05T14:39:50.499Z,18.03
2022-11-05T14:42:28.321Z,18.09
2022-11-05T14:45:08.677Z,18.07
2022-11-05T14:47:43.629Z,17.99
2022-11-05T14:50:20.218Z,17.86
2022-11-05T14:52:57.071Z,17.83
2022-11-05T14:55:35.184Z,17.69
2022-11-05T14:58:06.991Z,17.64
2022-11-05T15:00:40.725Z,17.47
2022-11-05T15:03:34.646Z,17.39
2022-11-05T15:06:20.437Z,17.30
2022-11-05T15:08:50.606Z,17.19
2022-11-05T15:11:24.375Z,17.08
2022-11-05T15:13:54.419Z,17.02
2022-11-05T15:16:37.068Z,16.96
2022-11-05T15:19:05.657Z,16.89
2022-11-05T15:21:36.585Z,16.74
2022-11-05T15:24:05.014Z,16.65
2022-11-05T15:26:41.786Z,16.52
2022-11-05T15:29:22.353Z,16.42
2022-11-05T15:31:51.131Z,16.36
2022-11-05T15:34:27.119Z,16.33
2022-11-05T15:36:57.896Z,16.31
2022-11-05T15:39:40.575Z,16.31
2022-11-05T15:42:14.626Z,16.32
2022-11-05T15:44:44.153Z,16.30
2022-11-05T15:47:19.232Z,16.27
2022-11-05T15:49:50.950Z,16.24
2022-11-05T15:52:21.373Z,16.21
2022-11-05T15:55:08.978Z,16.21
2022-11-05T15:57:40.043Z,16.21
2022-11-05T16:00:17.862Z,16.22
2022-11-05T16:02:54.468Z,16.19
2022-11-05T16:05:22.670Z,16.13
2022-11-05T16:07:50.891Z,16.06
2022-11-05T16:10:24.769Z,15.90
2022-11-05T16:12:52.473Z,15.74
2022-11-05T16:15:25.913Z,15.66
2022-11-05T16:17:53.184Z,15.61
2022-11-05T16:20:34.753Z,15.54
2022-11-05T16:23:23.491Z,15.44
2022-11-05T16:25:52.369Z,15.45
2022-11-05T16:28:29.293Z,15.48
2022-11-05T16:31:04.682Z,15.53
2022-11-05T16:33:35.543Z,15.53
2022-11-05T16:36:02.760Z,15.55
2022-11-05T16:38:30.734Z,15.56
2022-11-05T16:41:00.525Z,15.57
2022-11-05T16:43:27.932Z,15.59
2022-11-05T16:45:58.265Z,15.62
2022-11-05T16:48:26.270Z,15.67
2022-11-05T16:50:54.203Z,15.75
2022-11-05T16:53:21.490Z,15.80
2022-11-05T16:55:48.888Z,15.81
2022-11-05T16:58:22.114Z,15.84
2022-11-05T17:00:51.707Z,15.79
2022-11-05T17:03:18.985Z,15.73
2022-11-05T17:05:46.594Z,15.66
2022-11-05T17:08:14.147Z,15.57
2022-11-05T17:10:41.603Z,15.49
2022-11-05T17:13:14.415Z,15.44
2022-11-05T17:15:43.936Z,15.39
2022-11-05T17:18:17.916Z,15.38
2022-11-05T17:20:51.451Z,15.36
2022-11-05T17:23:21.921Z,15.39
2022-11-05T17:25:55.282Z,15.40
2022-11-05T17:28:23.133Z,15.37
2022-11-05T17:30:53.119Z,15.36
2022-11-05T17:33:23.162Z,15.34
2022-11-05T17:35:51.822Z,15.29
2022-11-05T17:38:20.421Z,15.30
2022-11-05T17:40:48.199Z,15.33
2022-11-05T17:43:16.107Z,15.24
2022-11-05T17:45:49.486Z,15.13
2022-11-05T17:48:17.055Z,15.07
2022-11-05T17:50:47.201Z,14.95
2022-11-05T17:53:16.597Z,14.91
2022-11-05T17:55:45.553Z,14.90
2022-11-05T17:58:13.587Z,14.87
2022-11-05T18:00:42.045Z,14.86
2022-11-05T18:03:11.333Z,14.84
2022-11-05T18:05:41.259Z,14.84
2022-11-05T18:08:09.239Z,14.87
2022-11-05T18:10:38.148Z,14.90
2022-11-05T18:13:05.568Z,14.93
2022-11-05T18:15:32.894Z,14.92
2022-11-05T18:18:00.254Z,14.91
2022-11-05T18:20:27.503Z,14.84
2022-11-05T18:22:54.693Z,14.78
2022-11-05T18:25:21.934Z,14.74
2022-11-05T18:27:49.014Z,14.75
2022-11-05T18:30:16.468Z,14.78
2022-11-05T18:32:44.551Z,14.83
2022-11-05T18:35:13.534Z,14.87
2022-11-05T18:37:41.556Z,14.88
2022-11-05T18:40:09.127Z,14.89
2022-11-05T18:42:36.655Z,14.87
2022-11-05T18:45:05.388Z,14.86
2022-11-05T18:47:33.855Z,14.82
2022-11-05T18:50:01.643Z,14.78
2022-11-05T18:52:31.772Z,14.76
2022-11-05T18:54:59.733Z,14.71
2022-11-05T18:57:27.343Z,14.64
2022-11-05T18:59:54.510Z,14.59
2022-11-05T19:02:21.975Z,14.56
2022-11-05T19:05:13.809Z,14.54
2022-11-05T19:07:38.128Z,14.55
2022-11-05T19:10:06.313Z,14.55
2022-11-05T19:12:35.680Z,14.60
2022-11-05T19:15:03.290Z,14.59
2022-11-05T19:17:32.962Z,14.63
2022-11-05T19:20:00.481Z,14.67
2022-11-05T19:22:28.097Z,14.76
2022-11-05T19:24:55.208Z,14.81
2022-11-05T19:27:22.544Z,14.90
2022-11-05T19:29:49.673Z,14.96
2022-11-05T19:32:16.981Z,15.00
2022-11-05T19:34:44.174Z,15.05
2022-11-05T19:37:12.690Z,15.07
2022-11-05T19:39:41.403Z,15.13
2022-11-05T19:42:08.448Z,15.18
2022-11-05T19:44:35.669Z,15.22
2022-11-05T19:47:03.088Z,15.24
2022-11-05T19:49:30.239Z,15.23
2022-11-05T19:51:57.575Z,15.21
2022-11-05T19:54:26.342Z,15.20
2022-11-05T19:56:53.528Z,15.20
2022-11-05T19:59:20.668Z,15.19
2022-11-05T20:01:48.291Z,15.17
2022-11-05T20:04:15.577Z,15.11
2022-11-05T20:06:42.739Z,15.02
2022-11-05T20:09:21.557Z,14.98
2022-11-05T20:11:50.346Z,14.94
2022-11-05T20:14:17.658Z,14.91
2022-11-05T20:16:45.877Z,14.87
2022-11-05T20:19:18.646Z,14.82
2022-11-05T20:21:46.833Z,14.81
2022-11-05T20:24:22.290Z,14.82
2022-11-05T20:26:52.678Z,14.85
2022-11-05T20:29:19.843Z,14.90
2022-11-05T20:31:47.899Z,14.90
2022-11-05T20:34:15.108Z,14.86
2022-11-05T20:36:42.288Z,14.80
2022-11-05T20:39:10.798Z,14.75
2022-11-05T20:41:38.255Z,14.72
2022-11-05T20:44:05.530Z,14.69
2022-11-05T20:46:33.190Z,14.65
2022-11-05T20:49:00.413Z,14.61
2022-11-05T20:51:30.688Z,14.57
2022-11-05T20:54:01.402Z,14.53
2022-11-05T20:56:31.694Z,14.50
2022-11-05T20:59:00.325Z,14.47
2022-11-05T21:01:29.855Z,14.47
2022-11-05T21:03:57.504Z,14.44
2022-11-05T21:06:24.643Z,14.47
2022-11-05T21:08:52.907Z,14.47
2022-11-05T21:11:20.982Z,14.48
2022-11-05T21:13:48.831Z,14.48
2022-11-05T21:16:18.592Z,14.47
2022-11-05T21:18:46.904Z,14.49
2022-11-05T21:21:20.393Z,14.53
2022-11-05T21:23:48.125Z,14.56
2022-11-05T21:26:17.017Z,14.59
2022-11-05T21:28:44.404Z,14.65
2022-11-05T21:31:11.641Z,14.70
2022-11-05T21:33:39.104Z,14.74
2022-11-05T21:36:11.335Z,14.78
2022-11-05T21:38:39.005Z,14.83
2022-11-05T21:41:07.333Z,14.89
2022-11-05T21:43:34.953Z,14.94
2022-11-05T21:46:03.358Z,14.96
2022-11-05T21:48:31.243Z,14.96
2022-11-05T21:51:16.887Z,14.94
2022-11-05T21:54:02.614Z,14.94
2022-11-05T21:56:48.710Z,14.93
2022-11-05T21:59:37.356Z,14.92
2022-11-05T22:02:05.399Z,14.90
2022-11-05T22:04:35.050Z,14.91
2022-11-05T22:07:03.127Z,14.91
2022-11-05T22:09:30.322Z,14.92
2022-11-05T22:11:57.800Z,14.95
2022-11-05T22:14:26.465Z,15.00
2022-11-05T22:16:53.747Z,15.08
2022-11-05T22:19:21.151Z,15.12
2022-11-05T22:21:48.373Z,15.14
2022-11-05T22:24:15.735Z,15.19
2022-11-05T22:26:43.700Z,15.20
2022-11-05T22:29:12.212Z,15.23
2022-11-05T22:31:40.190Z,15.22
2022-11-05T22:34:07.831Z,15.21
2022-11-05T22:36:36.115Z,15.14
2022-11-05T22:39:05.325Z,15.07
2022-11-05T22:41:32.737Z,15.00
2022-11-05T22:43:59.889Z,14.94
2022-11-05T22:46:27.718Z,14.92
2022-11-05T22:48:56.329Z,14.93
2022-11-05T22:51:25.975Z,14.96
2022-11-05T22:53:54.971Z,15.01
2022-11-05T22:56:24.379Z,14.96
2022-11-05T22:58:52.078Z,14.86
2022-11-05T23:01:22.485Z,14.75
2022-11-05T23:03:51.900Z,14.71
2022-11-05T23:06:40.230Z,14.65
2022-11-05T23:09:33.590Z,14.60
2022-11-05T23:12:01.999Z,14.57
2022-11-05T23:14:29.761Z,14.58
2022-11-05T23:17:15.336Z,14.51
2022-11-05T23:20:01.023Z,14.43
2022-11-05T23:22:48.396Z,14.39
2022-11-05T23:25:19.009Z,14.33
2022-11-05T23:27:48.980Z,14.32
2022-11-05T23:30:22.955Z,14.32
2022-11-05T23:32:50.950Z,14.26
2022-11-05T23:35:18.344Z,14.25
2022-11-05T23:38:03.917Z,14.26
2022-11-05T23:40:52.014Z,14.33
2022-11-05T23:43:37.917Z,14.39
2022-11-05T23:46:23.448Z,14.42
2022-11-05T23:48:50.926Z,14.42
2022-11-05T23:51:18.332Z,14.44
2022-11-05T23:53:45.428Z,14.46
2022-11-05T23:56:14.697Z,14.58
2022-11-05T23:58:42.633Z,14.59
